Map

Track Data

SID SEASON NUMBER BASIN SUBBASIN NAME ISO_TIME NATURE LAT LON WMO_WIND WMO_PRES WMO_AGENCY TRACK_TYPE DIST2LAND LANDFALL IFLAG USA_AGENCY USA_ATCF_ID USA_LAT USA_LON USA_RECORD USA_STATUS USA_WIND USA_PRES USA_SSHS USA_R34_NE USA_R34_SE USA_R34_SW USA_R34_NW USA_R50_NE USA_R50_SE USA_R50_SW USA_R50_NW USA_R64_NE USA_R64_SE USA_R64_SW USA_R64_NW USA_POCI USA_ROCI USA_RMW USA_EYE TOKYO_LAT TOKYO_LON TOKYO_GRADE TOKYO_WIND TOKYO_PRES TOKYO_R50_DIR TOKYO_R50_LONG TOKYO_R50_SHORT TOKYO_R30_DIR TOKYO_R30_LONG TOKYO_R30_SHORT TOKYO_LAND CMA_LAT CMA_LON CMA_CAT CMA_WIND CMA_PRES HKO_LAT HKO_LON HKO_CAT HKO_WIND HKO_PRES NEWDELHI_LAT NEWDELHI_LON NEWDELHI_GRADE NEWDELHI_WIND NEWDELHI_PRES NEWDELHI_CI NEWDELHI_DP NEWDELHI_POCI REUNION_LAT REUNION_LON REUNION_TYPE REUNION_WIND REUNION_PRES REUNION_TNUM REUNION_CI REUNION_RMW REUNION_R34_NE REUNION_R34_SE REUNION_R34_SW REUNION_R34_NW REUNION_R50_NE REUNION_R50_SE REUNION_R50_SW REUNION_R50_NW REUNION_R64_NE REUNION_R64_SE REUNION_R64_SW REUNION_R64_NW BOM_LAT BOM_LON BOM_TYPE BOM_WIND BOM_PRES BOM_TNUM BOM_CI BOM_RMW BOM_R34_NE BOM_R34_SE BOM_R34_SW BOM_R34_NW BOM_R50_NE BOM_R50_SE BOM_R50_SW BOM_R50_NW BOM_R64_NE BOM_R64_SE BOM_R64_SW BOM_R64_NW BOM_ROCI BOM_POCI BOM_EYE BOM_POS_METHOD BOM_PRES_METHOD NADI_LAT NADI_LON NADI_CAT NADI_WIND NADI_PRES WELLINGTON_LAT WELLINGTON_LON WELLINGTON_WIND WELLINGTON_PRES DS824_LAT DS824_LON DS824_STAGE DS824_WIND DS824_PRES TD9636_LAT TD9636_LON TD9636_STAGE TD9636_WIND TD9636_PRES TD9635_LAT TD9635_LON TD9635_WIND TD9635_PRES TD9635_ROCI NEUMANN_LAT NEUMANN_LON NEUMANN_CLASS NEUMANN_WIND NEUMANN_PRES MLC_LAT MLC_LON MLC_CLASS MLC_WIND MLC_PRES USA_GUST BOM_GUST BOM_GUST_PER REUNION_GUST REUNION_GUST_PER USA_SEAHGT USA_SEARAD_NE USA_SEARAD_SE USA_SEARAD_SW USA_SEARAD_NW STORM_SPEED STORM_DIR
1964093S13082 1964 26 SI MM NORMA 1964-04-02 00:00:00 TS -13.2000 82.2000 main 2147 2112 O________OO___ jtwc_sh SH311964 -13.2000 82.2000 10 -1 -13.2000 82.2000 TC 10 -13.2000 82.2000 1 10 7 336
1964093S13082 1964 26 SI MM NORMA 1964-04-02 03:00:00 TS -12.8635 82.0421 main 2112 2066 P________PP___ SH311964 -12.8475 82.0399 10 -1 -12.8475 82.0399 TC 10 -12.8955 82.0465 1 10 7 337
1964093S13082 1964 26 SI MM NORMA 1964-04-02 06:00:00 TS -12.5242 81.9016 main 2066 2032 O________OP___ jtwc_sh SH311964 -12.5000 81.9000 10 -1 -12.5000 81.9000 TC 10 -12.5727 81.9046 1 10 7 340
1964093S13082 1964 26 SI MM NORMA 1964-04-02 09:00:00 TS -12.1762 81.7902 main 2032 1986 P________PP___ SH311964 -12.1575 81.7926 10 -1 -12.1575 81.7926 TC 10 -12.2136 81.7854 1 10 8 345
1964093S13082 1964 26 SI MM NORMA 1964-04-02 12:00:00 TS -11.8000 81.7000 main 1986 1941 O________OO___ jtwc_sh SH311964 -11.8000 81.7000 10 -1 -11.8000 81.7000 TC 10 -11.8000 81.7000 1 10 8 348
1964093S13082 1964 26 SI MM NORMA 1964-04-02 15:00:00 TS -11.3813 81.6166 main 1941 1896 P________PP___ SH311964 -11.4075 81.6000 10 -1 -11.4075 81.6000 TC 10 -11.3288 81.6497 1 10 9 349
1964093S13082 1964 26 SI MM NORMA 1964-04-02 18:00:00 TS -10.9524 81.5325 main 1896 1840 O________OP___ jtwc_sh SH311964 -11.0000 81.5000 10 -1 -11.0000 81.5000 TC 10 -10.8571 81.5974 1 10 9 350
1964093S13082 1964 26 SI MM NORMA 1964-04-02 21:00:00 TS -10.5122 81.4571 main 1840 1805 P________PP___ SH311964 -10.5399 81.4375 10 -1 -10.5399 81.4375 TC 10 -10.4568 81.4963 1 10 8 342
1964093S13082 1964 26 SI MM NORMA 1964-04-03 00:00:00 TS -10.1846 81.2769 main 1805 1793 O________OO_O_ jtwc_sh SH311964 -10.2000 81.3000 10 -1 -10.2000 81.3000 TC 10 -10.2000 81.3000 1 10 -10.0000 81.0000 TC 45 990 6 307
1964093S13082 1964 26 SI MM NORMA 1964-04-03 03:00:00 TS -10.1209 80.9390 main 1793 1792 P________PP_P_ SH311964 -10.1024 81.0174 10 -1 -10.1024 81.0174 TC 10 -10.1458 80.9628 1 11 -10.1452 80.5776 TC 45 990 8 267
1964093S13082 1964 26 SI MM NORMA 1964-04-03 06:00:00 TS -10.2307 80.5007 main 1804 1804 O________OP_O_ jtwc_sh SH311964 -10.2000 80.6000 10 -1 -10.2000 80.6000 TC 10 -10.2402 80.5275 1 12 -10.3000 80.2000 TC 45 990 10 251
1964093S13082 1964 26 SI MM NORMA 1964-04-03 09:00:00 TS -10.4280 80.0133 main 1827 1827 P________PP_P_ SH311964 -10.3976 80.0725 12 -1 -10.3976 80.0725 TC 12 -10.4395 80.0284 1 13 -10.4773 79.8798 TC 45 990 11 245
1964093S13082 1964 26 SI MM NORMA 1964-04-03 12:00:00 TS -10.7000 79.5000 main 1863 1863 O________OO_O_ jtwc_sh SH311964 -10.7000 79.5000 15 -1 -10.7000 79.5000 TC 15 -10.7000 79.5000 1 15 -10.7000 79.5000 TC 45 991 12 240
1964093S13082 1964 26 SI MM NORMA 1964-04-03 15:00:00 TS -11.0252 78.9695 main 1901 1901 P________PP_P_ SH311964 -11.0498 79.0000 15 -1 -11.0498 79.0000 TC 15 -10.9942 79.0014 1 15 -10.9852 78.9151 TC 42 992 13 238
1964093S13082 1964 26 SI MM NORMA 1964-04-03 18:00:00 TS -11.3656 78.4219 main 1953 1953 O________OP_O_ jtwc_sh SH311964 -11.4000 78.5000 15 -1 -11.4000 78.5000 TC 15 -11.3298 78.4811 1 15 -11.3000 78.3000 TC 40 993 12 239
1964093S13082 1964 26 SI MM NORMA 1964-04-03 21:00:00 TS -11.6745 77.8861 main 1994 1994 P________PP_P_ SH311964 -11.6949 77.9575 15 -1 -11.6949 77.9575 TC 15 -11.6504 77.9452 1 15 -11.6372 77.8425 TC 40 994 12 243
1964093S13082 1964 26 SI MM NORMA 1964-04-04 00:00:00 TS -11.9000 77.3600 main 2025 2025 O________OO_O_ jtwc_sh SH311964 -11.9000 77.4000 15 -1 -11.9000 77.4000 TC 15 -11.9000 77.4000 1 15 -11.9000 77.4000 TC 40 995 11 253
1964093S13082 1964 26 SI MM NORMA 1964-04-04 03:00:00 TS -11.9985 76.8344 main 2049 2049 P________PP_P_ SH311964 -11.9874 76.8499 12 -1 -11.9874 76.8499 TC 12 -12.0155 76.8890 1 13 -11.9950 76.8648 TC 40 995 10 263
1964093S13082 1964 26 SI MM NORMA 1964-04-04 06:00:00 TS -12.0185 76.3036 main 2061 2061 O________OP_O_ jtwc_sh SH311964 -12.0000 76.3000 10 -1 -12.0000 76.3000 TC 10 -12.0538 76.3667 1 12 -12.0000 76.3000 TC 40 995 10 268
1964093S13082 1964 26 SI MM NORMA 1964-04-04 09:00:00 TS -12.0265 75.7866 main 2074 2074 P________PP_P_ SH311964 -12.0221 75.7876 10 -1 -12.0221 75.7876 TC 10 -12.0403 75.8111 1 11 -12.0221 75.7876 TC 37 995 11 271
1964093S13082 1964 26 SI MM NORMA 1964-04-04 12:00:00 TS -12.0000 75.2000 main 2075 2014 O________OO_O_ jtwc_sh SH311964 -12.0000 75.2000 10 -1 -12.0000 75.2000 TC 10 -12.0000 75.2000 1 10 -12.0000 75.2000 TC 35 996 13 275
1964093S13082 1964 26 SI MM NORMA 1964-04-04 15:00:00 TS -11.9088 74.4264 main 2005 1945 P________PP_P_ SH311964 -11.9002 74.4223 10 -1 -11.9002 74.4223 TC 10 -11.8957 74.4251 1 10 -11.9002 74.4223 TC 35 997 16 277
1964093S13082 1964 26 SI MM NORMA 1964-04-04 18:00:00 TS -11.8158 73.6065 main 1935 1870 O________OP_O_ jtwc_sh SH311964 -11.8000 73.6000 10 -1 -11.8000 73.6000 TC 10 -11.7819 73.6084 1 10 -11.8000 73.6000 TC 35 998 16 275
1964093S13082 1964 26 SI MM NORMA 1964-04-04 21:00:00 TS -11.7645 72.8272 main 1861 1805 P________PP_P_ SH311964 -11.7326 72.8175 10 -1 -11.7326 72.8175 TC 10 -11.7270 72.8376 1 10 -11.7326 72.8175 TC 32 999 14 269
1964093S13082 1964 26 SI MM NORMA 1964-04-05 00:00:00 TS -11.8400 72.2000 main 1805 1760 O________OO_O_ jtwc_sh SH311964 -11.8000 72.2000 10 -1 -11.8000 72.2000 TC 10 -11.8000 72.2000 1 10 -11.8000 72.2000 TC 30 1000 10 250
1964093S13082 1964 26 SI MM NORMA 1964-04-05 03:00:00 TS -12.1057 71.8520 main 1760 1718 P________PP_P_ SH311964 -12.0747 71.8825 10 -1 -12.0747 71.8825 TC 10 -12.0710 71.8026 1 10 -12.0747 71.8825 TC 27 9 219
1964093S13082 1964 26 SI MM NORMA 1964-04-05 06:00:00 TS -12.5104 71.6400 main 1708 1661 O________OP_O_ jtwc_sh SH311964 -12.5000 71.7000 10 -1 -12.5000 71.7000 TC 10 -12.4761 71.5427 1 10 -12.5000 71.7000 TC 25 10 206
1964093S13082 1964 26 SI MM NORMA 1964-04-05 09:00:00 TS -12.9813 71.4174 main 1661 1614 P________PP_P_ SH311964 -12.9775 71.4500 10 -1 -12.9775 71.4500 TC 10 -12.9682 71.3615 1 10 -12.9775 71.4500 TC 22 11 203
1964093S13082 1964 26 SI MM NORMA 1964-04-05 12:00:00 TS -13.5000 71.2000 main 1614 1568 O________OO_O_ jtwc_sh SH311964 -13.5000 71.2000 10 -1 -13.5000 71.2000 TC 10 -13.5000 71.2000 1 10 -13.5000 71.2000 TC 20 11 203
1964093S13082 1964 26 SI MM NORMA 1964-04-05 15:00:00 TS -14.0096 70.9633 main 1568 1514 P________PP_P_ SH311964 -13.9925 70.9424 10 -1 -13.9925 70.9424 TC 10 -14.0321 71.0105 1 10 -13.9925 70.9424 TC 20 11 204
1964093S13082 1964 26 SI MM NORMA 1964-04-05 18:00:00 TS -14.5333 70.7206 main 1514 1469 O________OP_O_ jtwc_sh SH311964 -14.5000 70.7000 10 -1 -14.5000 70.7000 TC 10 -14.5583 70.7910 1 10 -14.5000 70.7000 TC 20 12 203
1964093S13082 1964 26 SI MM NORMA 1964-04-05 21:00:00 TS -15.0799 70.4871 main 1465 1422 P________PP_P_ SH311964 -15.0400 70.4902 10 -1 -15.0400 70.4902 TC 10 -15.0803 70.5510 1 10 -15.0400 70.4902 TC 20 12 202
1964093S13082 1964 26 SI MM NORMA 1964-04-06 00:00:00 TS -15.6400 70.2600 main 1422 O________OO_O_ jtwc_sh SH311964 -15.6000 70.3000 10 -1 -15.6000 70.3000 TC 10 -15.6000 70.3000 1 10 -15.6000 70.3000 TC 20 12 201

About IBTrACS Database

This database is a web-friendly format of International Best Track Archive for Climate Stewardship (IBTrACS), a global best track data archive curated by NOAA dating back to 1842.

Updated: 2021-12-06